createdAt,value
2019-05-11T00:00:26.265Z,99272.92
2019-05-11T00:02:56.859Z,99272.19
2019-05-11T00:05:27.493Z,99270.55
2019-05-11T00:08:01.081Z,99268.06
2019-05-11T00:10:31.816Z,99276.58
2019-05-11T00:13:02.795Z,99283.20
2019-05-11T00:15:34.106Z,99287.59
2019-05-11T00:18:04.720Z,99286.34
2019-05-11T00:20:35.241Z,99284.36
2019-05-11T00:23:05.894Z,99285.95
2019-05-11T00:25:36.636Z,99282.16
2019-05-11T00:28:07.409Z,99277.66
2019-05-11T00:30:38.042Z,99276.89
2019-05-11T00:33:08.790Z,99285.08
2019-05-11T00:35:39.410Z,99281.38
2019-05-11T00:38:09.964Z,99284.02
2019-05-11T00:40:40.685Z,99285.55
2019-05-11T00:43:11.787Z,99285.61
2019-05-11T00:45:42.428Z,99282.13
2019-05-11T00:48:14.032Z,99285.20
2019-05-11T00:50:44.734Z,99291.81
2019-05-11T00:53:15.871Z,99286.13
2019-05-11T00:55:46.600Z,99291.69
2019-05-11T00:58:17.288Z,99290.70
2019-05-11T01:00:48.042Z,99291.31
2019-05-11T01:03:18.685Z,99291.48
2019-05-11T01:05:49.446Z,99292.06
2019-05-11T01:08:20.057Z,99289.58
2019-05-11T01:10:50.704Z,99287.69
2019-05-11T01:13:21.330Z,99287.19
2019-05-11T01:15:51.927Z,99285.61
2019-05-11T01:18:22.544Z,99287.59
2019-05-11T01:20:53.237Z,99293.40
2019-05-11T01:23:23.801Z,99297.50
2019-05-11T01:25:54.431Z,99298.66
2019-05-11T01:28:25.026Z,99300.19
2019-05-11T01:30:55.768Z,99302.58
2019-05-11T01:33:26.500Z,99298.95
2019-05-11T01:35:57.091Z,99295.16
2019-05-11T01:38:27.714Z,99295.88
2019-05-11T01:40:59.323Z,99299.61
2019-05-11T01:43:29.993Z,99300.48
2019-05-11T01:46:00.732Z,99298.52
2019-05-11T01:48:32.726Z,99300.05
2019-05-11T01:51:03.330Z,99298.43
2019-05-11T01:53:33.921Z,99301.16
2019-05-11T01:56:04.536Z,99301.53
2019-05-11T01:58:35.171Z,99304.94
2019-05-11T02:01:05.787Z,99304.66
2019-05-11T02:03:36.580Z,99307.02
2019-05-11T02:06:07.463Z,99310.55
2019-05-11T02:08:38.122Z,99310.08
2019-05-11T02:11:15.777Z,99314.45
2019-05-11T02:13:41.058Z,99311.16
2019-05-11T02:16:11.750Z,99303.84
2019-05-11T02:18:42.460Z,99302.09
2019-05-11T02:21:13.072Z,99305.30
2019-05-11T02:23:43.732Z,99301.66
2019-05-11T02:26:14.444Z,99302.83
2019-05-11T02:28:46.469Z,99297.23
2019-05-11T02:31:17.146Z,99300.45
2019-05-11T02:33:47.720Z,99302.51
2019-05-11T02:36:18.331Z,99308.81
2019-05-11T02:38:49.037Z,99308.02
2019-05-11T02:41:34.623Z,99306.77
2019-05-11T02:43:52.108Z,99311.25
2019-05-11T02:46:22.622Z,99309.86
2019-05-11T02:48:53.269Z,99309.30
2019-05-11T02:51:24.852Z,99310.76
2019-05-11T02:53:56.558Z,99314.03
2019-05-11T02:56:27.183Z,99312.92
2019-05-11T02:58:57.885Z,99320.36
2019-05-11T03:01:30.069Z,99317.73
2019-05-11T03:04:00.789Z,99321.62
2019-05-11T03:06:31.392Z,99322.68
2019-05-11T03:09:02.010Z,99326.22
2019-05-11T03:11:32.626Z,99325.66
2019-05-11T03:14:03.217Z,99331.09
2019-05-11T03:16:33.796Z,99321.75
2019-05-11T03:19:04.574Z,99323.30
2019-05-11T03:21:35.289Z,99321.61
2019-05-11T03:24:05.990Z,99328.64
2019-05-11T03:26:39.180Z,99329.97
2019-05-11T03:29:11.376Z,99332.66
2019-05-11T03:31:42.081Z,99331.16
2019-05-11T03:34:12.664Z,99336.48
2019-05-11T03:36:44.826Z,99339.63
2019-05-11T03:39:15.559Z,99341.54
2019-05-11T03:41:46.136Z,99349.45
2019-05-11T03:44:16.828Z,99350.56
2019-05-11T03:46:47.534Z,99354.45
2019-05-11T03:49:18.235Z,99348.00
2019-05-11T03:51:48.922Z,99346.23
2019-05-11T03:54:19.645Z,99347.14
2019-05-11T03:56:50.375Z,99352.52
2019-05-11T03:59:20.962Z,99345.08
2019-05-11T04:01:51.561Z,99350.38
2019-05-11T04:04:22.208Z,99351.05
2019-05-11T04:06:52.919Z,99350.34
2019-05-11T04:09:23.526Z,99349.70
2019-05-11T04:11:54.083Z,99357.42
2019-05-11T04:14:24.812Z,99356.02
2019-05-11T04:19:55.439Z,99362.48
2019-05-11T04:22:26.214Z,99357.52
2019-05-11T04:24:56.960Z,99363.98
2019-05-11T04:27:27.581Z,99370.15
2019-05-11T04:29:58.196Z,99371.34
2019-05-11T04:32:28.863Z,99376.49
2019-05-11T04:34:59.477Z,99370.30
2019-05-11T04:37:30.080Z,99367.02
2019-05-11T04:40:00.615Z,99373.03
2019-05-11T04:42:31.345Z,99373.52
2019-05-11T04:45:01.965Z,99371.98
2019-05-11T04:47:32.579Z,99374.95
2019-05-11T04:50:04.266Z,99383.98
2019-05-11T04:52:34.996Z,99386.66
2019-05-11T04:55:06.252Z,99384.03
2019-05-11T04:57:37.590Z,99382.20
2019-05-11T05:00:08.837Z,99385.38
2019-05-11T05:02:42.397Z,99389.83
2019-05-11T05:05:13.381Z,99387.48
2019-05-11T05:07:48.856Z,99391.87
2019-05-11T05:10:19.911Z,99394.17
2019-05-11T05:12:51.469Z,99394.92
2019-05-11T05:15:21.187Z,99392.80
2019-05-11T05:17:51.908Z,99408.58
2019-05-11T05:20:22.538Z,99400.82
2019-05-11T05:22:53.191Z,99408.72
2019-05-11T05:25:23.733Z,99415.23
2019-05-11T05:27:54.387Z,99418.02
2019-05-11T05:30:25.025Z,99416.67
2019-05-11T05:32:55.648Z,99423.56
2019-05-11T05:35:26.377Z,99428.88
2019-05-11T05:37:56.971Z,99428.95
2019-05-11T05:40:27.614Z,99422.59
2019-05-11T05:42:58.194Z,99425.98
2019-05-11T05:45:28.816Z,99429.11
2019-05-11T05:47:59.448Z,99436.37
2019-05-11T05:50:30.074Z,99428.73
2019-05-11T05:53:00.882Z,99430.95
2019-05-11T05:55:31.421Z,99431.12
2019-05-11T05:58:02.029Z,99428.34
2019-05-11T06:00:32.631Z,99435.94
2019-05-11T06:03:03.232Z,99435.94
2019-05-11T06:05:34.087Z,99423.58
2019-05-11T06:08:04.699Z,99423.58
2019-05-11T06:10:35.341Z,99438.22
2019-05-11T06:13:06.126Z,99438.47
2019-05-11T06:15:41.564Z,99441.80
2019-05-11T06:18:12.313Z,99432.48
2019-05-11T06:20:42.897Z,99437.83
2019-05-11T06:23:13.596Z,99440.34
2019-05-11T06:25:44.216Z,99442.49
2019-05-11T06:28:14.795Z,99435.73
2019-05-11T06:30:47.025Z,99443.40
2019-05-11T06:33:17.746Z,99443.40
2019-05-11T06:35:48.367Z,99450.42
2019-05-11T06:38:18.961Z,99446.25
2019-05-11T06:40:49.575Z,99452.95
2019-05-11T06:43:20.211Z,99443.70
2019-05-11T06:45:50.840Z,99458.86
2019-05-11T06:48:22.022Z,99450.49
2019-05-11T06:50:52.689Z,99448.80
2019-05-11T06:53:23.411Z,99454.34
2019-05-11T06:55:55.122Z,99455.30
2019-05-11T06:58:27.312Z,99449.94
2019-05-11T07:00:57.899Z,99455.77
2019-05-11T07:03:28.736Z,99450.70
2019-05-11T07:05:59.357Z,99458.47
2019-05-11T07:08:29.989Z,99458.15
2019-05-11T07:11:00.606Z,99454.36
2019-05-11T07:13:31.136Z,99466.58
2019-05-11T07:16:01.764Z,99464.05
2019-05-11T07:18:32.390Z,99463.34
2019-05-11T07:21:03.078Z,99471.14
2019-05-11T07:23:44.103Z,99463.25
2019-05-11T07:26:25.669Z,99467.30
2019-05-11T07:28:58.006Z,99459.89
2019-05-11T07:31:28.643Z,99452.59
2019-05-11T07:33:59.270Z,99460.95
2019-05-11T07:36:32.442Z,99463.80
2019-05-11T07:39:03.047Z,99460.77
2019-05-11T07:41:38.744Z,99458.72
2019-05-11T07:44:10.103Z,99469.72
2019-05-11T07:46:40.861Z,99464.35
2019-05-11T07:49:13.289Z,99472.73
2019-05-11T07:51:48.002Z,99466.94
2019-05-11T07:54:18.741Z,99475.19
2019-05-11T07:56:49.526Z,99469.13
2019-05-11T07:59:21.960Z,99471.07
2019-05-11T08:01:52.761Z,99475.08
2019-05-11T08:04:23.686Z,99484.20
2019-05-11T08:06:54.452Z,99477.92
2019-05-11T08:09:25.075Z,99478.84
2019-05-11T08:11:58.242Z,99479.80
2019-05-11T08:14:29.659Z,99482.58
2019-05-11T08:17:02.029Z,99493.05
2019-05-11T08:19:32.662Z,99485.02
2019-05-11T08:22:03.255Z,99482.06
2019-05-11T08:24:34.400Z,99486.64
2019-05-11T08:27:08.236Z,99486.59
2019-05-11T08:29:43.873Z,99482.45
2019-05-11T08:32:14.509Z,99477.95
2019-05-11T08:34:45.112Z,99479.19
2019-05-11T08:37:15.727Z,99470.31
2019-05-11T08:39:48.185Z,99473.42
2019-05-11T08:42:18.642Z,99477.55
2019-05-11T08:44:49.303Z,99482.41
2019-05-11T08:47:20.505Z,99474.86
2019-05-11T08:49:51.214Z,99477.47
2019-05-11T08:52:21.851Z,99477.34
2019-05-11T08:54:52.474Z,99485.00
2019-05-11T08:57:23.059Z,99480.45
2019-05-11T08:59:53.848Z,99490.95
2019-05-11T09:02:24.446Z,99490.26
2019-05-11T09:04:55.071Z,99492.20
2019-05-11T09:07:27.812Z,99494.61
2019-05-11T09:09:58.735Z,99492.34
2019-05-11T09:12:29.483Z,99492.84
2019-05-11T09:15:00.156Z,99490.06
2019-05-11T09:17:30.843Z,99492.20
2019-05-11T09:20:01.571Z,99501.11
2019-05-11T09:22:32.162Z,99502.64
2019-05-11T09:25:02.753Z,99505.66
2019-05-11T09:27:37.646Z,99502.70
2019-05-11T09:30:08.652Z,99500.20
2019-05-11T09:32:39.292Z,99510.59
2019-05-11T09:35:10.259Z,99510.34
2019-05-11T09:37:40.855Z,99507.64
2019-05-11T09:40:11.737Z,99513.09
2019-05-11T09:42:42.343Z,99514.02
2019-05-11T09:45:13.137Z,99507.72
2019-05-11T09:47:43.762Z,99514.90
2019-05-11T09:50:14.724Z,99524.03
2019-05-11T09:52:45.313Z,99525.42
2019-05-11T09:55:16.007Z,99522.53
2019-05-11T09:57:48.694Z,99527.33
2019-05-11T10:00:19.501Z,99519.63
2019-05-11T10:02:50.036Z,99525.33
2019-05-11T10:05:20.664Z,99528.40
2019-05-11T10:07:51.355Z,99532.26
2019-05-11T10:10:22.197Z,99532.94
2019-05-11T10:12:53.071Z,99527.47
2019-05-11T10:15:23.709Z,99515.84
2019-05-11T10:17:54.405Z,99526.19
2019-05-11T10:20:25.008Z,99521.02
2019-05-11T10:22:57.946Z,99516.44
2019-05-11T10:25:28.977Z,99525.30
2019-05-11T10:27:59.632Z,99525.67
2019-05-11T10:30:30.315Z,99530.63
2019-05-11T10:33:02.427Z,99527.48
2019-05-11T10:35:37.692Z,99535.19
2019-05-11T10:38:09.016Z,99534.52
2019-05-11T10:40:40.027Z,99539.56
2019-05-11T10:43:10.730Z,99534.70
2019-05-11T10:45:41.336Z,99525.55
2019-05-11T10:48:11.947Z,99533.92
2019-05-11T10:50:42.595Z,99529.02
2019-05-11T10:53:13.277Z,99538.00
2019-05-11T10:55:43.984Z,99545.03
2019-05-11T10:58:14.592Z,99540.87
2019-05-11T11:00:45.272Z,99541.03
2019-05-11T11:03:17.903Z,99538.92
2019-05-11T11:05:48.877Z,99540.52
2019-05-11T11:08:19.544Z,99536.60
2019-05-11T11:10:50.132Z,99543.84
2019-05-11T11:13:20.755Z,99546.69
2019-05-11T11:15:51.393Z,99545.09
2019-05-11T11:18:23.494Z,99549.34
2019-05-11T11:20:54.096Z,99546.01
2019-05-11T11:23:25.177Z,99549.16
2019-05-11T11:25:58.584Z,99542.07
2019-05-11T11:28:29.521Z,99547.52
2019-05-11T11:31:00.260Z,99548.91
2019-05-11T11:33:31.355Z,99551.35
2019-05-11T11:36:02.003Z,99552.47
2019-05-11T11:38:32.865Z,99553.21
2019-05-11T11:41:03.651Z,99561.05
2019-05-11T11:43:34.285Z,99560.92
2019-05-11T11:46:08.411Z,99571.56
2019-05-11T11:48:39.226Z,99566.21
2019-05-11T11:51:09.839Z,99566.19
2019-05-11T11:53:40.483Z,99570.88
2019-05-11T11:56:11.217Z,99567.47
2019-05-11T11:58:42.244Z,99570.74
2019-05-11T12:01:12.892Z,99572.76
2019-05-11T12:03:43.475Z,99576.38
2019-05-11T12:06:14.476Z,99577.91
2019-05-11T12:08:45.079Z,99580.06
2019-05-11T12:11:15.736Z,99577.31
2019-05-11T12:13:47.541Z,99581.45
2019-05-11T12:16:18.536Z,99581.14
2019-05-11T12:18:49.209Z,99588.84
2019-05-11T12:21:19.899Z,99591.00
2019-05-11T12:23:50.731Z,99599.22
2019-05-11T12:26:21.459Z,99597.39
2019-05-11T12:28:52.156Z,99604.99
2019-05-11T12:31:22.745Z,99602.57
2019-05-11T12:33:53.360Z,99597.23
2019-05-11T12:36:23.943Z,99591.52
2019-05-11T12:38:54.490Z,99599.79
2019-05-11T12:41:25.101Z,99600.30
2019-05-11T12:43:57.727Z,99598.70
2019-05-11T12:46:27.992Z,99607.67
2019-05-11T12:48:59.274Z,99611.25
2019-05-11T12:51:29.932Z,99606.55
2019-05-11T12:54:01.309Z,99606.72
2019-05-11T12:56:32.542Z,99606.93
2019-05-11T12:59:03.197Z,99608.77
2019-05-11T13:01:33.901Z,99616.48
2019-05-11T13:04:05.587Z,99610.94
2019-05-11T13:06:38.311Z,99616.10
2019-05-11T13:09:08.761Z,99615.00
2019-05-11T13:11:39.408Z,99618.80
2019-05-11T13:14:10.023Z,99619.87
2019-05-11T13:16:41.056Z,99623.12
2019-05-11T13:19:11.653Z,99620.69
2019-05-11T13:21:42.252Z,99612.87
2019-05-11T13:24:13.680Z,99619.96
2019-05-11T13:26:48.553Z,99620.95
2019-05-11T13:29:19.443Z,99619.25
2019-05-11T13:31:50.860Z,99616.91
2019-05-11T13:34:21.473Z,99619.94
2019-05-11T13:36:52.172Z,99617.33
2019-05-11T13:39:22.966Z,99622.98
2019-05-11T13:41:53.655Z,99625.98
2019-05-11T13:44:24.367Z,99624.14
2019-05-11T13:46:55.083Z,99625.81
2019-05-11T13:49:28.187Z,99622.33
2019-05-11T13:51:58.694Z,99621.61
2019-05-11T13:54:29.862Z,99625.13
2019-05-11T13:57:00.805Z,99624.78
2019-05-11T13:59:31.421Z,99616.38
2019-05-11T14:02:02.066Z,99621.48
2019-05-11T14:04:35.415Z,99620.21
2019-05-11T14:07:08.066Z,99620.94
2019-05-11T14:09:38.465Z,99615.05
2019-05-11T14:12:09.121Z,99619.81
2019-05-11T14:14:39.717Z,99621.52
2019-05-11T14:17:11.402Z,99617.97
2019-05-11T14:19:42.251Z,99610.47
2019-05-11T14:22:13.018Z,99616.63
2019-05-11T14:24:45.035Z,99621.05
2019-05-11T14:27:17.810Z,99628.31
2019-05-11T14:29:48.792Z,99630.02
2019-05-11T14:32:20.257Z,99631.95
2019-05-11T14:34:50.869Z,99632.44
2019-05-11T14:37:21.522Z,99639.02
2019-05-11T14:39:52.128Z,99633.33
2019-05-11T14:42:22.782Z,99636.31
2019-05-11T14:44:56.097Z,99636.80
2019-05-11T14:47:28.291Z,99636.22
2019-05-11T14:50:00.483Z,99641.83
2019-05-11T14:52:33.449Z,99637.86
2019-05-11T14:55:04.834Z,99644.44
2019-05-11T14:57:35.604Z,99644.09
2019-05-11T15:00:08.368Z,99639.42
2019-05-11T15:02:49.638Z,99642.44
2019-05-11T15:05:21.692Z,99636.84
2019-05-11T15:07:53.132Z,99642.58
2019-05-11T15:10:24.871Z,99647.32
2019-05-11T15:12:59.170Z,99639.53
2019-05-11T15:15:30.087Z,99650.22
2019-05-11T15:18:00.604Z,99645.25
2019-05-11T15:20:31.343Z,99648.80
2019-05-11T15:23:04.750Z,99644.78
2019-05-11T15:25:35.356Z,99650.16
2019-05-11T15:28:06.014Z,99655.63
2019-05-11T15:30:38.041Z,99648.19
2019-05-11T15:33:10.182Z,99648.41
2019-05-11T15:35:42.046Z,99647.87
2019-05-11T15:38:13.872Z,99647.19
2019-05-11T15:40:45.355Z,99649.25
2019-05-11T15:43:17.988Z,99649.97
2019-05-11T15:45:48.874Z,99653.82
2019-05-11T15:48:19.512Z,99655.68
2019-05-11T15:50:50.078Z,99648.41
2019-05-11T15:53:21.893Z,99662.83
2019-05-11T15:55:55.151Z,99660.34
2019-05-11T15:58:25.814Z,99668.00
2019-05-11T16:00:58.851Z,99670.39
2019-05-11T16:03:31.527Z,99674.00
2019-05-11T16:06:03.526Z,99672.54
2019-05-11T16:08:34.086Z,99675.99
2019-05-11T16:11:08.187Z,99675.26
2019-05-11T16:13:38.627Z,99680.55
2019-05-11T16:16:09.866Z,99682.06
2019-05-11T16:18:40.576Z,99682.60
2019-05-11T16:21:12.553Z,99679.28
2019-05-11T16:23:45.332Z,99677.16
2019-05-11T16:26:17.582Z,99684.77
2019-05-11T16:28:48.318Z,99681.39
2019-05-11T16:31:18.971Z,99680.25
2019-05-11T16:33:49.599Z,99680.66
2019-05-11T16:36:21.517Z,99682.29
2019-05-11T16:38:52.875Z,99682.29
2019-05-11T16:41:23.511Z,99683.73
2019-05-11T16:43:54.282Z,99690.98
2019-05-11T16:46:24.921Z,99696.11
2019-05-11T16:48:57.914Z,99698.88
2019-05-11T16:51:29.154Z,99702.26
2019-05-11T16:53:59.948Z,99707.23
2019-05-11T16:56:33.258Z,99700.86
2019-05-11T16:59:03.940Z,99702.84
2019-05-11T17:01:37.715Z,99705.25
2019-05-11T17:04:10.706Z,99708.91
2019-05-11T17:06:43.271Z,99702.95
2019-05-11T17:09:14.605Z,99710.82
2019-05-11T17:11:48.799Z,99712.02
2019-05-11T17:14:19.129Z,99711.71
2019-05-11T17:16:50.448Z,99716.63
2019-05-11T17:19:21.744Z,99712.34
2019-05-11T17:21:52.357Z,99721.53
2019-05-11T17:24:23.078Z,99722.88
2019-05-11T17:26:54.119Z,99723.03
2019-05-11T17:29:24.778Z,99731.07
2019-05-11T17:31:57.817Z,99732.33
2019-05-11T17:34:28.549Z,99735.89
2019-05-11T17:37:00.185Z,99735.59
2019-05-11T17:39:30.840Z,99735.78
2019-05-11T17:42:01.456Z,99737.38
2019-05-11T17:44:32.217Z,99751.08
2019-05-11T17:47:02.913Z,99750.62
2019-05-11T17:49:33.601Z,99751.77
2019-05-11T17:52:04.226Z,99759.31
2019-05-11T17:54:34.886Z,99760.12
2019-05-11T17:57:05.715Z,99758.07
2019-05-11T17:59:38.495Z,99766.86
2019-05-11T18:02:09.490Z,99767.14
2019-05-11T18:04:40.269Z,99773.56
2019-05-11T18:07:24.411Z,99772.84
2019-05-11T18:09:43.397Z,99770.38
2019-05-11T18:12:17.678Z,99771.22
2019-05-11T18:14:48.497Z,99783.38
2019-05-11T18:17:20.829Z,99779.89
2019-05-11T18:19:51.592Z,99775.82
2019-05-11T18:22:22.287Z,99780.76
2019-05-11T18:24:54.446Z,99784.41
2019-05-11T18:27:27.868Z,99793.80
2019-05-11T18:29:58.742Z,99790.89
2019-05-11T18:32:29.342Z,99794.45
2019-05-11T18:34:59.940Z,99795.98
2019-05-11T18:37:30.514Z,99798.78
2019-05-11T18:40:01.435Z,99801.41
2019-05-11T18:42:32.121Z,99796.48
2019-05-11T18:45:02.843Z,99799.50
2019-05-11T18:47:33.569Z,99796.04
2019-05-11T18:50:06.146Z,99797.92
2019-05-11T18:52:36.999Z,99801.89
2019-05-11T18:55:08.572Z,99807.23
2019-05-11T18:57:39.287Z,99804.39
2019-05-11T19:00:10.507Z,99805.46
2019-05-11T19:02:42.665Z,99809.06
2019-05-11T19:05:13.567Z,99801.89
2019-05-11T19:07:44.228Z,99806.38
2019-05-11T19:10:14.950Z,99800.41
2019-05-11T19:12:45.559Z,99797.92
2019-05-11T19:15:18.579Z,99795.47
2019-05-11T19:17:49.221Z,99798.59
2019-05-11T19:20:19.929Z,99797.98
2019-05-11T19:22:50.508Z,99801.72
2019-05-11T19:25:21.237Z,99800.82
2019-05-11T19:27:52.128Z,99803.95
2019-05-11T19:30:22.825Z,99805.47
2019-05-11T19:32:53.459Z,99809.39
2019-05-11T19:35:24.283Z,99812.69
2019-05-11T19:37:54.913Z,99815.27
2019-05-11T19:40:26.038Z,99817.16
2019-05-11T19:43:02.043Z,99824.90
2019-05-11T19:45:32.643Z,99820.23
2019-05-11T19:48:03.356Z,99825.08
2019-05-11T19:50:34.112Z,99823.60
2019-05-11T19:53:04.846Z,99824.67
2019-05-11T19:55:35.987Z,99824.23
2019-05-11T19:58:06.734Z,99835.09
2019-05-11T20:00:38.057Z,99831.41
2019-05-11T20:03:09.395Z,99827.17
2019-05-11T20:05:40.205Z,99828.77
2019-05-11T20:08:10.876Z,99833.84
2019-05-11T20:10:41.533Z,99837.45
2019-05-11T20:13:12.189Z,99833.61
2019-05-11T20:15:42.824Z,99832.84
2019-05-11T20:18:15.073Z,99839.84
2019-05-11T20:20:48.506Z,99833.80
2019-05-11T20:23:20.564Z,99832.73
2019-05-11T20:25:51.108Z,99832.91
2019-05-11T20:28:21.720Z,99836.91
2019-05-11T20:30:52.448Z,99832.90
2019-05-11T20:33:23.040Z,99833.76
2019-05-11T20:35:53.734Z,99835.34
2019-05-11T20:38:24.253Z,99835.41
2019-05-11T20:40:54.893Z,99840.51
2019-05-11T20:43:27.969Z,99838.68
2019-05-11T20:45:59.896Z,99840.69
2019-05-11T20:48:30.596Z,99840.69
2019-05-11T20:51:01.224Z,99843.19
2019-05-11T20:53:31.889Z,99838.98
2019-05-11T20:56:02.589Z,99834.59
2019-05-11T20:58:34.917Z,99842.10
2019-05-11T21:01:07.201Z,99836.93
2019-05-11T21:03:38.145Z,99842.47
2019-05-11T21:06:08.754Z,99847.14
2019-05-11T21:08:39.385Z,99849.58
2019-05-11T21:11:10.773Z,99847.62
2019-05-11T21:13:42.317Z,99850.84
2019-05-11T21:16:12.975Z,99855.05
2019-05-11T21:18:43.693Z,99853.39
2019-05-11T21:21:14.459Z,99851.21
2019-05-11T21:23:45.116Z,99852.78
2019-05-11T21:26:16.083Z,99860.45
2019-05-11T21:28:48.667Z,99852.39
2019-05-11T21:31:24.843Z,99858.68
2019-05-11T21:33:55.575Z,99856.02
2019-05-11T21:36:28.350Z,99855.83
2019-05-11T21:38:59.183Z,99856.86
2019-05-11T21:41:31.082Z,99859.22
2019-05-11T21:44:01.853Z,99862.25
2019-05-11T21:46:32.457Z,99855.30
2019-05-11T21:49:03.177Z,99860.99
2019-05-11T21:51:33.800Z,99859.12
2019-05-11T21:54:04.404Z,99856.17
2019-05-11T21:56:42.466Z,99855.90
2019-05-11T21:59:13.179Z,99860.92
2019-05-11T22:01:44.282Z,99854.56
2019-05-11T22:04:14.957Z,99857.55
2019-05-11T22:06:48.216Z,99851.92
2019-05-11T22:09:18.535Z,99853.75
2019-05-11T22:11:49.380Z,99856.03
2019-05-11T22:14:20.973Z,99861.73
2019-05-11T22:16:51.713Z,99862.27
2019-05-11T22:19:22.720Z,99860.26
2019-05-11T22:21:53.379Z,99859.62
2019-05-11T22:24:29.185Z,99862.94
2019-05-11T22:27:00.393Z,99866.97
2019-05-11T22:29:31.225Z,99862.82
2019-05-11T22:32:01.982Z,99864.62
2019-05-11T22:34:34.083Z,99865.22
2019-05-11T22:37:04.810Z,99859.34
2019-05-11T22:39:37.678Z,99861.59
2019-05-11T22:42:11.261Z,99865.46
2019-05-11T22:44:42.040Z,99867.11
2019-05-11T22:47:14.351Z,99867.64
2019-05-11T22:49:49.602Z,99867.64
2019-05-11T22:52:33.019Z,99864.44
2019-05-11T22:54:53.156Z,99856.25
2019-05-11T22:57:23.890Z,99860.38
2019-05-11T22:59:54.662Z,99867.52
2019-05-11T23:02:25.743Z,99857.19
2019-05-11T23:04:57.921Z,99854.89
2019-05-11T23:07:28.850Z,99853.48
2019-05-11T23:10:00.613Z,99850.45
2019-05-11T23:12:32.182Z,99855.80
2019-05-11T23:15:08.064Z,99858.84
2019-05-11T23:17:41.479Z,99854.50
2019-05-11T23:20:12.379Z,99855.82
2019-05-11T23:22:54.275Z,99854.98
2019-05-11T23:25:18.465Z,99859.41
2019-05-11T23:27:51.047Z,99859.09
2019-05-11T23:30:22.175Z,99858.95
2019-05-11T23:32:52.778Z,99858.30
2019-05-11T23:35:23.409Z,99872.16
2019-05-11T23:37:54.016Z,99856.30
2019-05-11T23:40:24.710Z,99861.46
2019-05-11T23:42:57.728Z,99862.13
2019-05-11T23:45:28.237Z,99867.53
2019-05-11T23:47:59.069Z,99870.22
2019-05-11T23:50:31.429Z,99880.75
2019-05-11T23:53:06.333Z,99873.70
2019-05-11T23:55:34.959Z,99872.50
2019-05-11T23:58:08.003Z,99867.87
